Time;durP1;ratioP1;P1;durP2;ratioP2;P2;SDS_P1;SDS_P2;PMS_P1;PMS_P2;Temp;Humidity;BMP_temperature;BMP_pressure;BME280_temperature;BME280_humidity;BME280_pressure;Samples;Min_cycle;Max_cycle;Signal;HPM_P1;HPM_P2
2023/05/29 00:00:25;;;;;;;2.45;0.73;;;;;;;13.40;68.22;102502.94;5057750;27;96833;-28
2023/05/29 00:02:50;;;;;;;3.50;0.93;;;;;;;13.41;68.18;102501.97;5076057;27;99524;-27
2023/05/29 00:05:16;;;;;;;6.00;0.85;;;;;;;13.43;66.84;102505.50;5075821;27;99167;-27
2023/05/29 00:07:43;;;;;;;4.90;0.85;;;;;;;13.38;67.63;102508.44;5057637;27;96765;-28
2023/05/29 00:10:10;;;;;;;3.67;0.95;;;;;;;13.21;67.89;102498.31;5076550;27;96764;-29
2023/05/29 00:12:36;;;;;;;5.30;0.98;;;;;;;13.24;68.11;102503.59;5057317;27;100946;-27
2023/05/29 00:15:05;;;;;;;1.73;0.73;;;;;;;13.18;68.65;102512.94;5057206;27;100795;-27
2023/05/29 00:17:34;;;;;;;3.88;0.70;;;;;;;13.08;68.36;102525.16;5075460;27;96621;-27
2023/05/29 00:20:01;;;;;;;3.72;0.95;;;;;;;13.08;69.28;102525.16;5057282;27;97186;-29
2023/05/29 00:22:27;;;;;;;3.03;1.15;;;;;;;13.04;68.06;102509.97;5057230;27;100998;-28
2023/05/29 00:24:52;;;;;;;4.72;1.05;;;;;;;13.10;68.49;102512.38;5057251;27;101501;-28
2023/05/29 00:27:17;;;;;;;2.72;1.02;;;;;;;13.05;69.58;102505.41;5075990;27;96755;-27
2023/05/29 00:29:43;;;;;;;2.45;0.82;;;;;;;13.09;68.38;102515.19;5075790;27;96855;-28
2023/05/29 00:32:09;;;;;;;3.65;0.82;;;;;;;13.01;69.41;102512.78;5075054;27;99110;-27
2023/05/29 00:34:35;;;;;;;3.20;0.77;;;;;;;12.99;69.14;102513.81;5056593;27;101381;-28
2023/05/29 00:37:01;;;;;;;2.90;0.63;;;;;;;13.01;69.62;102522.81;5075643;27;96657;-29
2023/05/29 00:39:26;;;;;;;4.07;0.90;;;;;;;13.07;68.59;102528.84;5075467;27;96972;-27
2023/05/29 00:41:52;;;;;;;4.10;0.90;;;;;;;13.07;68.99;102528.84;5074751;27;99936;-29
2023/05/29 00:44:21;;;;;;;1.60;0.70;;;;;;;13.08;69.36;102532.44;5075289;27;103532;-28
2023/05/29 00:46:56;;;;;;;3.45;1.02;;;;;;;13.10;68.60;102522.38;5056971;27;96726;-27
2023/05/29 00:49:23;;;;;;;0.80;0.45;;;;;;;13.08;69.65;102527.88;5057211;27;96826;-27
2023/05/29 00:51:51;;;;;;;3.70;0.70;;;;;;;13.10;69.02;102542.31;5056801;27;100963;-27
2023/05/29 00:54:21;;;;;;;2.25;0.90;;;;;;;13.11;69.76;102543.22;5056048;27;100971;-27
2023/05/29 00:56:47;;;;;;;5.35;0.65;;;;;;;13.13;69.87;102552.16;5056879;27;96747;-27
2023/05/29 00:59:12;;;;;;;1.45;0.73;;;;;;;13.09;68.61;102547.84;5076068;27;96782;-27
2023/05/29 01:01:39;;;;;;;3.50;1.08;;;;;;;13.11;68.93;102554.09;5075234;27;98164;-28
2023/05/29 01:04:08;;;;;;;7.07;0.88;;;;;;;13.01;69.30;102542.72;5056547;27;100871;-27
2023/05/29 01:06:35;;;;;;;2.03;0.80;;;;;;;12.96;68.92;102542.91;5056122;27;96818;-27
2023/05/29 01:09:00;;;;;;;1.73;0.73;;;;;;;12.90;70.39;102547.78;5056539;27;97123;-28
2023/05/29 01:12:02;;;;;;;4.88;0.63;;;;;;;12.90;69.99;102555.94;5074613;27;99523;-28
2023/05/29 01:14:48;;;;;;;2.17;0.57;;;;;;;12.91;69.66;102552.25;5074646;27;99298;-29
2023/05/29 01:17:29;;;;;;;2.92;1.17;;;;;;;12.79;69.33;102553.66;5074261;27;96791;-27
2023/05/29 01:20:20;;;;;;;3.53;0.68;;;;;;;12.77;69.95;102560.13;5056683;27;96772;-28
2023/05/29 01:23:06;;;;;;;1.77;0.70;;;;;;;12.78;69.30;102559.19;5074788;27;99431;-27
2023/05/29 01:25:44;;;;;;;3.90;0.80;;;;;;;12.74;69.35;102559.31;5056639;27;100974;-27
2023/05/29 01:28:12;;;;;;;4.95;1.23;;;;;;;12.63;69.96;102563.44;5075101;27;96693;-27
2023/05/29 01:30:39;;;;;;;4.43;1.00;;;;;;;12.54;69.33;102552.00;5056365;27;96818;-29
2023/05/29 01:33:05;;;;;;;2.67;0.60;;;;;;;12.59;69.44;102569.97;5055476;27;99069;-28
2023/05/29 01:35:32;;;;;;;4.82;0.98;;;;;;;12.53;69.93;102555.66;5074145;27;97798;-29
2023/05/29 01:37:57;;;;;;;4.30;0.70;;;;;;;12.60;70.22;102569.88;5074651;27;96725;-27
2023/05/29 01:40:23;;;;;;;2.03;0.77;;;;;;;12.54;69.93;102559.28;5074880;27;96843;-28
2023/05/29 01:42:49;;;;;;;1.48;0.47;;;;;;;12.57;69.76;102561.88;5056004;27;98167;-27
2023/05/29 01:45:16;;;;;;;4.10;0.50;;;;;;;12.50;69.63;102563.94;5055864;27;101136;-28
2023/05/29 01:47:42;;;;;;;4.63;0.55;;;;;;;12.51;68.85;102557.59;5074549;27;96420;-27
2023/05/29 01:50:09;;;;;;;3.88;0.70;;;;;;;12.50;69.62;102566.66;5056535;27;96904;-27
2023/05/29 01:52:35;;;;;;;3.38;0.95;;;;;;;12.52;69.31;102566.63;5055748;27;101799;-27
2023/05/29 01:55:00;;;;;;;4.03;0.73;;;;;;;12.48;69.13;102565.84;5055763;27;101397;-28
2023/05/29 01:57:26;;;;;;;7.65;0.85;;;;;;;12.50;69.48;102571.22;5074023;27;96453;-27
2023/05/29 01:59:52;;;;;;;2.30;0.43;;;;;;;12.44;68.94;102579.63;5055777;27;96669;-27
2023/05/29 02:02:17;;;;;;;0.45;0.38;;;;;;;12.32;69.10;102578.31;5073990;27;99485;-28
2023/05/29 02:04:43;;;;;;;2.67;0.57;;;;;;;12.31;70.47;102574.69;5055538;27;99767;-28
2023/05/29 02:07:08;;;;;;;1.67;0.68;;;;;;;12.36;70.19;102579.06;5074169;27;96486;-28
2023/05/29 02:09:35;;;;;;;3.97;0.60;;;;;;;12.25;69.55;102580.41;5074321;27;96786;-27
2023/05/29 02:12:01;;;;;;;2.10;0.68;;;;;;;12.19;69.81;102572.50;5055483;27;101089;-28
2023/05/29 02:14:27;;;;;;;1.15;0.52;;;;;;;12.29;70.24;102581.16;5055497;27;101226;-28
2023/05/29 02:16:52;;;;;;;4.45;0.43;;;;;;;12.22;69.89;102572.34;5074212;27;96483;-28
2023/05/29 02:19:18;;;;;;;2.38;0.68;;;;;;;12.28;70.28;102580.28;5073841;27;97032;-27
2023/05/29 02:21:44;;;;;;;3.50;1.00;;;;;;;12.14;69.42;102571.81;5054985;27;101185;-28
2023/05/29 02:24:09;;;;;;;1.85;0.52;;;;;;;12.12;70.16;102576.41;5073647;27;100000;-27
2023/05/29 02:26:37;;;;;;;4.35;0.70;;;;;;;12.13;70.34;102588.16;5073757;27;96520;-28
2023/05/29 02:29:05;;;;;;;10.90;1.10;;;;;;;12.05;69.67;102574.88;5055149;27;96679;-27
2023/05/29 02:31:30;;;;;;;2.05;0.60;;;;;;;12.02;69.91;102578.59;5054861;27;101036;-28
2023/05/29 02:33:56;;;;;;;1.83;0.65;;;;;;;11.94;69.65;102566.28;5073886;27;98264;-27
2023/05/29 02:36:21;;;;;;;3.25;0.70;;;;;;;11.98;70.04;102584.22;5073369;27;96828;-28
2023/05/29 02:38:47;;;;;;;1.55;0.63;;;;;;;11.99;69.88;102575.13;5074075;27;96500;-27
2023/05/29 02:41:12;;;;;;;2.17;0.57;;;;;;;11.92;70.01;102585.34;5073398;27;98840;-27
2023/05/29 02:43:37;;;;;;;2.05;0.60;;;;;;;11.87;69.26;102569.25;5073500;27;97922;-27
2023/05/29 02:46:03;;;;;;;3.58;0.75;;;;;;;11.85;69.74;102584.69;5073272;27;96518;-27
2023/05/29 02:48:29;;;;;;;1.90;0.65;;;;;;;11.77;69.89;102578.63;5073687;27;96801;-28
2023/05/29 02:50:54;;;;;;;2.38;0.60;;;;;;;11.72;70.40;102566.19;5073052;27;99411;-27
2023/05/29 02:53:19;;;;;;;3.67;0.77;;;;;;;11.73;69.95;102573.38;5073218;27;99445;-28
2023/05/29 02:55:45;;;;;;;1.95;0.52;;;;;;;11.78;70.13;102576.84;5073432;27;96581;-27
2023/05/29 02:58:11;;;;;;;6.18;0.80;;;;;;;11.78;69.77;102576.84;5072781;27;105058;-29
2023/05/29 03:00:36;;;;;;;3.55;0.73;;;;;;;11.83;70.17;102586.56;5073343;27;97993;-28
2023/05/29 03:03:03;;;;;;;2.78;0.60;;;;;;;11.74;69.63;102586.91;5073746;27;97290;-28
2023/05/29 03:05:28;;;;;;;6.78;1.02;;;;;;;11.71;70.11;102597.03;5054777;27;96612;-28
2023/05/29 03:07:53;;;;;;;1.65;0.52;;;;;;;11.60;70.72;102595.56;5073373;27;96792;-27
2023/05/29 03:10:19;;;;;;;2.67;0.60;;;;;;;11.55;70.08;102580.41;5072496;27;99021;-28
2023/05/29 03:12:45;;;;;;;2.25;0.63;;;;;;;11.55;69.85;102584.00;5073081;27;97327;-27
2023/05/29 03:15:10;;;;;;;2.08;0.60;;;;;;;11.52;70.23;102591.41;5054644;27;96914;-27
2023/05/29 03:17:38;;;;;;;2.53;0.30;;;;;;;11.54;70.65;102603.09;5072496;27;96609;-27
2023/05/29 03:20:07;;;;;;;1.92;0.45;;;;;;;11.50;69.95;102588.72;5054441;27;101036;-27
2023/05/29 03:22:34;;;;;;;3.25;0.43;;;;;;;11.48;70.67;102591.50;5072928;27;99339;-27
2023/05/29 03:25:00;;;;;;;6.60;1.00;;;;;;;11.48;70.01;102591.50;5073062;27;96595;-28
2023/05/29 03:27:25;;;;;;;3.85;0.45;;;;;;;11.46;69.91;102597.91;5073467;27;96793;-27
2023/05/29 03:29:52;;;;;;;2.83;0.43;;;;;;;11.46;69.95;102581.63;5072566;27;99557;-28
2023/05/29 03:32:17;;;;;;;7.40;0.90;;;;;;;11.38;70.00;102579.22;5072491;27;99930;-27
2023/05/29 03:34:43;;;;;;;5.80;0.77;;;;;;;11.40;70.21;102581.88;5072009;27;99350;-28
2023/05/29 03:37:08;;;;;;;1.08;0.30;;;;;;;11.35;70.24;102576.63;5073103;27;96690;-29
2023/05/29 03:39:33;;;;;;;7.38;0.70;;;;;;;11.42;69.64;102591.75;5072855;27;98773;-28
2023/05/29 03:41:59;;;;;;;10.75;0.82;;;;;;;11.42;70.15;102580.00;5072752;27;97723;-27
2023/05/29 03:44:25;;;;;;;4.63;0.90;;;;;;;11.38;70.47;102584.66;5054236;27;96581;-27
2023/05/29 03:46:51;;;;;;;4.80;0.60;;;;;;;11.38;70.07;102594.63;5073209;27;96744;-28
2023/05/29 03:49:16;;;;;;;0.98;0.55;;;;;;;11.29;70.33;102595.84;5072592;27;98495;-27
2023/05/29 03:51:41;;;;;;;2.20;0.85;;;;;;;11.24;70.42;102601.41;5073051;27;97770;-28
2023/05/29 03:54:07;;;;;;;8.18;0.95;;;;;;;11.21;70.66;102596.13;5073043;27;96535;-27
2023/05/29 03:56:32;;;;;;;4.45;0.65;;;;;;;11.25;69.79;102597.78;5072787;27;96828;-27
2023/05/29 03:58:57;;;;;;;2.47;0.52;;;;;;;11.24;70.00;102604.13;5071750;27;99194;-27
2023/05/29 04:01:23;;;;;;;4.00;0.57;;;;;;;11.21;69.50;102593.41;5072403;27;99135;-28
2023/05/29 04:03:48;;;;;;;2.88;0.73;;;;;;;11.21;69.61;102608.81;5072360;27;96626;-29
2023/05/29 04:06:14;;;;;;;4.65;1.10;;;;;;;11.16;69.45;102600.81;5072362;27;96799;-27
2023/05/29 04:08:39;;;;;;;3.65;0.28;;;;;;;11.22;69.47;102613.28;5072238;27;99754;-28
2023/05/29 04:11:04;;;;;;;3.13;0.80;;;;;;;11.10;69.44;102611.88;5072159;27;96896;-27
2023/05/29 04:13:30;;;;;;;2.30;0.50;;;;;;;11.09;69.73;102607.41;5072517;27;96521;-27
2023/05/29 04:15:55;;;;;;;1.15;0.55;;;;;;;11.02;69.46;102606.72;5072539;27;96775;-27
2023/05/29 04:18:21;;;;;;;0.95;0.38;;;;;;;11.02;69.41;102608.56;5072358;27;97967;-27
2023/05/29 04:20:47;;;;;;;0.25;0.17;;;;;;;11.16;69.83;102622.53;5072419;27;97377;-27
2023/05/29 04:23:13;;;;;;;2.42;0.47;;;;;;;11.19;69.13;102624.25;5071681;27;96579;-28
2023/05/29 04:25:38;;;;;;;1.15;0.50;;;;;;;11.14;68.84;102618.09;5053679;27;96817;-27
2023/05/29 04:28:03;;;;;;;1.52;0.55;;;;;;;11.13;69.07;102619.03;5072544;27;97440;-27
2023/05/29 04:30:29;;;;;;;1.35;0.38;;;;;;;11.08;69.02;102621.91;5073949;27;97801;-28
2023/05/29 04:32:54;;;;;;;3.28;0.80;;;;;;;11.15;69.04;102636.13;5075439;27;96745;-27
2023/05/29 04:35:21;;;;;;;1.33;0.52;;;;;;;11.09;68.61;102628.22;5075150;27;96815;-27
2023/05/29 04:37:47;;;;;;;1.98;0.55;;;;;;;11.03;68.77;102619.34;5057105;27;99527;-27
2023/05/29 04:40:17;;;;;;;4.85;0.55;;;;;;;11.11;68.53;102627.22;5075911;27;97563;-27
2023/05/29 04:42:44;;;;;;;1.58;0.47;;;;;;;11.11;68.38;102624.53;5057096;27;97683;-27
2023/05/29 04:45:12;;;;;;;2.65;0.50;;;;;;;11.09;68.37;102629.09;5057037;27;96876;-28
2023/05/29 04:47:44;;;;;;;0.90;0.32;;;;;;;11.05;68.23;102625.59;5056326;27;101010;-28
2023/05/29 04:50:13;;;;;;;1.65;0.43;;;;;;;11.07;68.38;102632.81;5075376;27;99722;-27
2023/05/29 04:52:39;;;;;;;3.03;0.47;;;;;;;11.02;68.27;102636.56;5056827;27;96716;-28
2023/05/29 04:55:06;;;;;;;1.75;0.70;;;;;;;11.08;68.35;102635.44;5075443;27;96856;-27
2023/05/29 04:57:31;;;;;;;1.02;0.57;;;;;;;11.07;68.07;102639.13;5056516;27;102083;-29
2023/05/29 04:59:56;;;;;;;2.42;0.35;;;;;;;11.11;68.04;102643.50;5074900;27;99765;-27
2023/05/29 05:02:22;;;;;;;5.53;0.70;;;;;;;11.19;68.04;102654.06;5075480;27;96558;-27
2023/05/29 05:04:47;;;;;;;3.03;0.50;;;;;;;11.17;67.93;102653.25;5075711;27;96847;-28
2023/05/29 05:07:13;;;;;;;3.97;0.95;;;;;;;11.12;67.38;102638.97;5075229;27;98028;-27
2023/05/29 05:09:38;;;;;;;6.10;0.45;;;;;;;11.21;67.71;102644.06;5075198;27;97771;-29
2023/05/29 05:12:04;;;;;;;3.33;0.77;;;;;;;11.25;67.76;102649.31;5074874;27;96630;-28
2023/05/29 05:14:29;;;;;;;3.78;0.30;;;;;;;11.26;67.55;102655.63;5075167;27;96796;-27
2023/05/29 05:16:54;;;;;;;3.90;0.55;;;;;;;11.33;67.06;102657.19;5075159;27;97715;-28
2023/05/29 05:19:20;;;;;;;5.20;1.13;;;;;;;11.33;67.22;102646.34;5074507;27;112944;-28
2023/05/29 05:21:45;;;;;;;2.03;0.68;;;;;;;11.41;67.24;102646.94;5075032;27;96752;-28
2023/05/29 05:24:10;;;;;;;3.13;0.88;;;;;;;11.45;66.74;102645.00;5074821;27;96828;-28
2023/05/29 05:26:36;;;;;;;1.00;0.38;;;;;;;11.44;66.91;102652.28;5074805;27;99984;-27
2023/05/29 05:29:01;;;;;;;2.25;0.75;;;;;;;11.55;66.68;102653.69;5075202;27;97333;-28
2023/05/29 05:31:26;;;;;;;2.67;0.52;;;;;;;11.57;66.63;102647.25;5074600;27;96678;-27
2023/05/29 05:33:52;;;;;;;1.92;0.80;;;;;;;11.66;66.45;102648.75;5075331;27;96726;-27
2023/05/29 05:36:18;;;;;;;1.85;0.57;;;;;;;11.77;66.46;102659.22;5073905;27;98873;-27
2023/05/29 05:38:43;;;;;;;0.70;0.40;;;;;;;11.80;65.99;102653.69;5055948;27;98879;-28
2023/05/29 05:41:09;;;;;;;1.83;0.43;;;;;;;11.84;65.71;102652.59;5074463;27;96584;-29
2023/05/29 05:43:35;;;;;;;1.85;0.75;;;;;;;11.92;65.71;102650.53;5074546;27;96817;-28
2023/05/29 05:46:00;;;;;;;3.65;0.70;;;;;;;12.02;65.13;102660.09;5074457;27;97960;-27
2023/05/29 05:48:26;;;;;;;1.88;0.77;;;;;;;12.05;65.14;102656.38;5074460;27;98994;-27
2023/05/29 05:50:51;;;;;;;1.00;0.45;;;;;;;12.04;65.44;102660.03;5074634;27;96430;-27
2023/05/29 05:53:16;;;;;;;3.72;0.68;;;;;;;12.07;65.17;102666.22;5074557;27;96862;-28
2023/05/29 05:55:42;;;;;;;2.78;0.60;;;;;;;12.11;65.05;102656.16;5074089;27;99322;-27
2023/05/29 05:58:08;;;;;;;2.80;0.45;;;;;;;12.16;65.09;102650.53;5055736;27;101102;-27
2023/05/29 06:00:33;;;;;;;5.28;0.82;;;;;;;12.25;65.16;102664.63;5074037;27;96535;-27
2023/05/29 06:03:00;;;;;;;3.60;1.10;;;;;;;12.36;64.83;102666.91;5074351;27;96809;-27
2023/05/29 06:05:25;;;;;;;1.23;0.50;;;;;;;12.39;64.48;102666.78;5055682;27;100804;-27
2023/05/29 06:07:50;;;;;;;4.85;0.70;;;;;;;12.45;64.66;102676.53;5074149;27;97842;-27
2023/05/29 06:10:16;;;;;;;3.60;0.50;;;;;;;12.46;64.35;102668.31;5074409;27;96520;-27
2023/05/29 06:12:41;;;;;;;3.40;0.57;;;;;;;12.54;64.43;102671.63;5074204;27;96815;-28
2023/05/29 06:15:07;;;;;;;2.95;0.95;;;;;;;12.63;64.16;102674.91;5074004;27;98066;-27
2023/05/29 06:17:33;;;;;;;3.45;0.45;;;;;;;12.71;63.97;102676.38;5055951;27;101158;-27
2023/05/29 06:19:58;;;;;;;4.57;0.57;;;;;;;12.74;63.91;102681.66;5074291;27;96519;-28
2023/05/29 06:22:24;;;;;;;1.73;0.65;;;;;;;12.83;63.55;102682.25;5074120;27;96875;-27
2023/05/29 06:24:49;;;;;;;1.98;0.70;;;;;;;12.81;63.54;102676.88;5073615;27;98185;-28
2023/05/29 06:27:15;;;;;;;4.90;0.90;;;;;;;12.86;63.46;102679.41;5073802;27;97831;-28
2023/05/29 06:29:40;;;;;;;5.50;1.00;;;;;;;12.93;63.33;102670.91;5074081;27;97042;-28
2023/05/29 06:32:06;;;;;;;5.15;0.70;;;;;;;13.13;63.13;102674.59;5073651;27;96860;-28
2023/05/29 06:34:31;;;;;;;3.65;1.05;;;;;;;13.25;62.83;102667.75;5073494;27;97293;-28
2023/05/29 06:36:56;;;;;;;4.00;0.88;;;;;;;13.37;62.76;102664.50;5073283;27;112198;-28
2023/05/29 06:39:22;;;;;;;3.03;0.70;;;;;;;13.45;62.71;102675.09;5073758;27;96512;-27
2023/05/29 06:41:47;;;;;;;1.70;0.80;;;;;;;13.46;61.98;102683.16;5073935;27;96851;-28
2023/05/29 06:44:13;;;;;;;6.60;1.00;;;;;;;13.53;61.72;102668.34;5073618;27;98061;-27
2023/05/29 06:46:38;;;;;;;1.77;0.52;;;;;;;13.66;61.31;102670.50;5073574;27;97464;-27
2023/05/29 06:49:03;;;;;;;3.33;1.00;;;;;;;13.78;61.32;102678.13;5072921;27;96475;-27
2023/05/29 06:51:29;;;;;;;3.47;0.82;;;;;;;13.81;61.22;102672.53;5073648;27;96780;-27
2023/05/29 06:53:55;;;;;;;3.55;0.60;;;;;;;13.76;60.82;102680.03;5072589;27;98139;-29
2023/05/29 06:56:20;;;;;;;3.75;1.23;;;;;;;13.80;60.58;102692.56;5073340;27;98293;-27
2023/05/29 06:58:46;;;;;;;1.50;0.73;;;;;;;13.87;60.64;102688.63;5073351;27;96717;-27
2023/05/29 07:01:11;;;;;;;2.17;0.63;;;;;;;13.84;60.42;102694.19;5073620;27;96809;-27
2023/05/29 07:03:37;;;;;;;3.03;0.95;;;;;;;13.81;60.42;102689.75;5073264;27;97351;-27
2023/05/29 07:06:03;;;;;;;5.00;0.55;;;;;;;13.85;60.25;102695.97;5073739;27;96975;-27
2023/05/29 07:08:28;;;;;;;2.65;0.70;;;;;;;13.93;60.30;102693.75;5054692;27;97788;-27
2023/05/29 07:10:54;;;;;;;4.45;1.27;;;;;;;13.96;60.54;102704.50;5073259;27;96751;-27
2023/05/29 07:13:19;;;;;;;1.55;0.63;;;;;;;13.90;59.54;102699.38;5072530;27;98081;-27
2023/05/29 07:15:45;;;;;;;8.00;0.93;;;;;;;14.00;59.65;102692.53;5072844;27;97797;-27
2023/05/29 07:18:11;;;;;;;3.30;0.60;;;;;;;14.14;59.26;102685.56;5072689;27;96728;-27
2023/05/29 07:20:36;;;;;;;3.28;0.68;;;;;;;14.42;58.79;102682.41;5073136;27;96899;-28
2023/05/29 07:23:03;;;;;;;5.03;0.90;;;;;;;14.62;58.41;102690.50;5054438;27;100701;-27
2023/05/29 07:25:28;;;;;;;4.13;1.02;;;;;;;14.70;58.32;102695.59;5053051;27;100704;-27
2023/05/29 07:27:54;;;;;;;1.40;0.65;;;;;;;14.89;58.26;102695.56;5073082;27;96611;-28
2023/05/29 07:30:19;;;;;;;1.70;0.70;;;;;;;14.99;57.91;102680.50;5073200;27;96805;-27
2023/05/29 07:32:45;;;;;;;3.85;1.13;;;;;;;15.15;57.59;102694.22;5054515;27;97902;-28
2023/05/29 07:35:10;;;;;;;3.10;0.80;;;;;;;15.19;57.18;102692.25;5072081;27;99799;-31
2023/05/29 07:37:36;;;;;;;2.80;0.82;;;;;;;15.19;56.98;102698.59;5051377;27;97135;-28
2023/05/29 07:40:05;;;;;;;5.00;1.00;;;;;;;15.18;57.17;102694.09;5070226;27;97127;-28
2023/05/29 07:42:31;;;;;;;2.80;1.08;;;;;;;15.22;57.00;102692.97;5070609;27;97398;-29
2023/05/29 07:44:57;;;;;;;2.15;0.85;;;;;;;15.35;56.92;102703.22;5051529;27;101059;-29
2023/05/29 07:47:22;;;;;;;1.75;0.70;;;;;;;15.38;56.07;102705.84;5069525;27;116815;-34
2023/05/29 07:49:47;;;;;;;2.33;0.50;;;;;;;15.50;56.78;102702.44;5070109;27;97831;-31
2023/05/29 07:52:13;;;;;;;2.03;0.60;;;;;;;15.60;56.23;102700.13;5071522;27;97901;-27
2023/05/29 07:54:38;;;;;;;2.83;0.65;;;;;;;15.78;55.57;102707.38;5072821;27;99147;-27
2023/05/29 07:57:09;;;;;;;2.28;1.08;;;;;;;15.69;55.84;102696.91;5072763;27;96449;-27
2023/05/29 07:59:35;;;;;;;3.25;1.02;;;;;;;15.79;55.47;102708.25;5072509;27;96728;-28
2023/05/29 08:02:02;;;;;;;5.78;1.02;;;;;;;15.87;55.50;102703.22;5072018;27;97425;-27
2023/05/29 08:04:28;;;;;;;3.95;0.85;;;;;;;15.81;54.69;102709.06;5073851;27;98953;-28
2023/05/29 08:06:53;;;;;;;1.95;0.82;;;;;;;15.95;55.24;102709.19;5076103;27;96464;-28
2023/05/29 08:09:18;;;;;;;0.93;0.55;;;;;;;15.96;55.08;102702.75;5076366;27;96747;-27
2023/05/29 08:11:46;;;;;;;4.55;0.73;;;;;;;15.93;53.46;102695.59;5076013;27;97870;-27
2023/05/29 08:14:12;;;;;;;3.45;0.65;;;;;;;16.07;54.45;102694.84;5057436;27;100713;-27
2023/05/29 08:16:37;;;;;;;4.53;0.82;;;;;;;16.09;54.10;102708.44;5057306;27;96927;-27
2023/05/29 08:19:03;;;;;;;4.93;0.85;;;;;;;16.17;54.07;102699.81;5076012;27;96880;-29
2023/05/29 08:21:30;;;;;;;5.80;1.25;;;;;;;16.21;53.86;102715.03;5075786;27;97968;-27
2023/05/29 08:23:55;;;;;;;3.35;0.75;;;;;;;16.29;54.11;102702.72;5057289;27;99011;-27
2023/05/29 08:26:20;;;;;;;4.03;1.05;;;;;;;16.38;52.74;102706.81;5075098;27;101437;-27
2023/05/29 08:28:46;;;;;;;9.18;1.30;;;;;;;16.41;53.38;102712.09;5075726;27;96771;-27
2023/05/29 08:31:11;;;;;;;4.75;0.73;;;;;;;16.56;52.95;102721.28;5075295;27;109626;-27
2023/05/29 08:33:37;;;;;;;4.18;0.85;;;;;;;16.73;52.93;102714.84;5075116;27;99010;-27
2023/05/29 08:36:03;;;;;;;3.45;0.65;;;;;;;16.85;52.43;102714.19;5074900;27;104244;-28
2023/05/29 08:38:29;;;;;;;2.20;0.82;;;;;;;16.93;51.75;102714.59;5057277;27;96827;-28
2023/05/29 08:40:56;;;;;;;3.75;0.70;;;;;;;17.05;51.51;102723.94;5075278;27;99379;-28
2023/05/29 08:43:22;;;;;;;3.22;0.70;;;;;;;17.04;51.54;102722.19;5057225;27;100854;-27
2023/05/29 08:45:58;;;;;;;6.50;1.00;;;;;;;17.11;51.39;102723.59;5057142;27;96570;-27
2023/05/29 08:48:27;;;;;;;3.17;0.95;;;;;;;17.28;51.65;102722.59;5056802;27;96896;-27
2023/05/29 08:50:54;;;;;;;3.47;0.70;;;;;;;17.36;50.63;102723.00;5060283;27;101045;-28
2023/05/29 08:53:21;;;;;;;2.38;0.88;;;;;;;17.25;50.53;102736.44;5095919;27;97945;-28
2023/05/29 08:55:52;;;;;;;2.03;0.88;;;;;;;17.04;50.73;102726.78;5077272;27;96585;-28
2023/05/29 08:58:20;;;;;;;1.95;0.65;;;;;;;17.15;51.42;102735.25;5069762;27;97568;-28
2023/05/29 09:00:47;;;;;;;5.60;0.77;;;;;;;17.14;51.11;102730.75;5071707;27;101102;-31
2023/05/29 09:03:13;;;;;;;2.53;0.73;;;;;;;17.09;49.64;102727.38;5072031;27;100765;-28
2023/05/29 09:05:40;;;;;;;2.60;0.60;;;;;;;17.27;50.21;102739.13;5073546;27;96840;-28
2023/05/29 09:08:07;;;;;;;2.45;0.80;;;;;;;17.23;49.39;102737.53;5072710;27;96876;-27
2023/05/29 09:10:32;;;;;;;4.40;1.08;;;;;;;17.19;49.89;102728.63;5072780;27;100886;-28
2023/05/29 09:12:59;;;;;;;2.42;0.70;;;;;;;17.13;50.55;102726.22;5074301;27;97252;-28
2023/05/29 09:15:24;;;;;;;2.17;0.60;;;;;;;17.27;50.42;102739.13;5070065;27;97491;-35
2023/05/29 09:17:55;;;;;;;3.33;0.80;;;;;;;17.08;49.61;102736.56;5072626;27;97048;-29
2023/05/29 09:20:24;;;;;;;5.07;1.13;;;;;;;17.11;49.92;102742.78;5072505;27;98901;-31
2023/05/29 09:22:57;;;;;;;0.52;0.47;;;;;;;17.22;48.82;102733.03;5070777;27;101727;-30
2023/05/29 09:25:24;;;;;;;1.95;0.55;;;;;;;17.34;49.19;102724.94;5070855;27;97095;-28
2023/05/29 09:27:55;;;;;;;2.15;0.57;;;;;;;17.44;48.63;102738.09;5070735;27;97036;-28
2023/05/29 09:30:34;;;;;;;1.40;0.60;;;;;;;17.54;47.46;102723.75;5072993;27;97478;-27
2023/05/29 09:33:00;;;;;;;1.95;0.60;;;;;;;17.69;49.06;102735.63;5073312;27;101669;-27
2023/05/29 09:35:32;;;;;;;1.42;0.55;;;;;;;17.75;48.00;102728.88;5072948;27;96857;-27
2023/05/29 09:37:57;;;;;;;2.65;0.93;;;;;;;17.76;48.31;102725.19;5073617;27;96714;-28
2023/05/29 09:40:22;;;;;;;2.50;0.93;;;;;;;17.87;48.54;102719.03;5073745;27;110573;-27
2023/05/29 09:42:48;;;;;;;3.28;0.85;;;;;;;18.08;48.72;102717.69;5074626;27;97772;-27
2023/05/29 09:45:17;;;;;;;2.10;0.82;;;;;;;18.00;47.62;102711.81;5074497;27;96456;-28
2023/05/29 09:47:43;;;;;;;3.17;1.02;;;;;;;17.86;46.95;102718.16;5073172;27;96862;-27
2023/05/29 09:50:18;;;;;;;3.97;1.17;;;;;;;17.91;47.71;102723.38;5073081;27;98931;-28
2023/05/29 09:52:43;;;;;;;3.03;0.90;;;;;;;18.07;47.08;102728.75;5072890;27;101157;-28
2023/05/29 09:55:10;;;;;;;5.18;1.05;;;;;;;18.31;47.35;102718.97;5074398;27;96553;-27
2023/05/29 09:57:37;;;;;;;5.30;0.90;;;;;;;18.47;47.23;102721.59;5073364;27;96726;-27
2023/05/29 10:00:03;;;;;;;3.10;0.88;;;;;;;18.64;47.02;102718.63;5072887;27;100918;-28
2023/05/29 10:02:29;;;;;;;3.10;1.25;;;;;;;18.75;46.86;102714.28;5072757;27;100868;-27
2023/05/29 10:04:54;;;;;;;2.53;0.68;;;;;;;18.97;46.74;102728.38;5073397;27;106059;-29
2023/05/29 10:07:31;;;;;;;3.20;0.95;;;;;;;19.07;46.07;102720.41;5074299;27;96739;-27
2023/05/29 10:10:03;;;;;;;2.25;0.70;;;;;;;19.19;46.25;102719.56;5074289;27;98011;-28
2023/05/29 10:12:29;;;;;;;2.40;0.60;;;;;;;19.06;44.92;102694.78;5072632;27;101146;-28
2023/05/29 10:15:00;;;;;;;1.20;0.65;;;;;;;19.24;46.05;102713.78;5072500;27;96907;-28
2023/05/29 10:17:32;;;;;;;2.15;0.70;;;;;;;19.13;44.22;102709.00;5072694;27;96728;-28
2023/05/29 10:19:58;;;;;;;;;;;;;;;19.32;44.99;102719.59;5072817;27;101063;-28
2023/05/29 10:22:25;;;;;;;3.15;0.55;;;;;;;19.43;46.54;102708.75;5072857;27;100697;-27
2023/05/29 10:24:52;;;;;;;2.58;0.65;;;;;;;19.62;45.44;102711.09;5072672;27;96580;-28
2023/05/29 10:27:18;;;;;;;7.43;1.08;;;;;;;19.50;44.99;102699.09;5072770;27;96911;-27
2023/05/29 10:29:54;;;;;;;3.45;0.43;;;;;;;19.51;44.79;102698.09;5071696;27;101241;-28
2023/05/29 10:32:32;;;;;;;2.88;0.85;;;;;;;19.62;44.99;102707.47;5072040;27;101739;-28
2023/05/29 10:35:22;;;;;;;3.72;1.00;;;;;;;19.69;44.92;102719.84;5071344;27;97162;-28
2023/05/29 10:38:03;;;;;;;1.30;0.82;;;;;;;19.51;44.69;102703.59;5072446;27;96849;-28
2023/05/29 10:40:28;;;;;;;3.30;0.93;;;;;;;19.52;43.90;102697.13;5072311;27;100810;-29
2023/05/29 10:42:58;;;;;;;4.60;1.23;;;;;;;19.65;44.91;102704.50;5073141;27;99152;-28
2023/05/29 10:45:32;;;;;;;3.90;0.63;;;;;;;19.71;44.04;102716.00;5072154;27;96700;-27
2023/05/29 10:48:06;;;;;;;1.75;0.68;;;;;;;19.85;44.21;102706.75;5073966;27;96768;-27
2023/05/29 10:50:42;;;;;;;2.78;0.80;;;;;;;19.85;43.84;102706.75;5073507;27;97941;-27
2023/05/29 10:53:11;;;;;;;3.10;1.10;;;;;;;19.75;44.20;102702.91;5072179;27;97989;-28
2023/05/29 10:55:38;;;;;;;4.60;1.05;;;;;;;19.69;43.78;102711.59;5072966;27;96564;-30
2023/05/29 10:58:12;;;;;;;5.38;0.95;;;;;;;19.69;44.04;102701.47;5055076;27;96855;-28
2023/05/29 11:00:42;;;;;;;3.28;0.70;;;;;;;19.72;43.62;102698.50;5072057;27;100343;-27
2023/05/29 11:03:08;;;;;;;4.07;1.15;;;;;;;19.61;43.66;102692.84;5071825;27;100658;-28
2023/05/29 11:05:33;;;;;;;4.30;1.08;;;;;;;19.65;44.03;102690.75;5072058;27;96476;-27
2023/05/29 11:08:03;;;;;;;4.38;0.98;;;;;;;19.91;44.46;102687.06;5073299;27;96845;-28
2023/05/29 11:10:43;;;;;;;1.33;0.77;;;;;;;19.94;43.29;102703.34;5071733;27;100875;-28
2023/05/29 11:13:09;;;;;;;7.70;1.13;;;;;;;19.95;43.74;102696.00;5071864;27;98819;-28
2023/05/29 11:15:37;;;;;;;3.58;1.15;;;;;;;19.99;43.33;102702.13;5072907;27;96587;-28
2023/05/29 11:18:06;;;;;;;2.03;0.90;;;;;;;19.98;43.18;102705.88;5063971;27;97604;-27
2023/05/29 11:21:09;;;;;;;3.60;1.05;;;;;;;19.96;41.95;102694.09;5091135;27;99190;-28
2023/05/29 11:23:41;;;;;;;4.85;1.10;;;;;;;19.74;42.58;102690.16;5016543;27;100898;-28